sensor_id;sensor_type;location;lat;lon;timestamp;temperature;humidity
56478;DHT22;42382;53.210;5.772;2023-05-28T00:01:33;12.50;78.40
56478;DHT22;42382;53.210;5.772;2023-05-28T00:03:58;12.40;78.40
56478;DHT22;42382;53.210;5.772;2023-05-28T00:06:24;12.40;78.50
56478;DHT22;42382;53.210;5.772;2023-05-28T00:08:49;12.40;78.70
56478;DHT22;42382;53.210;5.772;2023-05-28T00:11:15;12.40;78.90
56478;DHT22;42382;53.210;5.772;2023-05-28T00:13:41;12.40;79.00
56478;DHT22;42382;53.210;5.772;2023-05-28T00:16:06;12.30;78.80
56478;DHT22;42382;53.210;5.772;2023-05-28T00:18:32;12.30;79.10
56478;DHT22;42382;53.210;5.772;2023-05-28T00:20:58;12.30;79.10
56478;DHT22;42382;53.210;5.772;2023-05-28T00:23:23;12.30;79.30
56478;DHT22;42382;53.210;5.772;2023-05-28T00:25:49;12.30;79.30
56478;DHT22;42382;53.210;5.772;2023-05-28T00:28:16;12.30;79.30
56478;DHT22;42382;53.210;5.772;2023-05-28T00:30:42;12.30;79.20
56478;DHT22;42382;53.210;5.772;2023-05-28T00:33:07;12.30;79.20
56478;DHT22;42382;53.210;5.772;2023-05-28T00:35:33;12.20;79.20
56478;DHT22;42382;53.210;5.772;2023-05-28T00:37:59;12.20;79.30
56478;DHT22;42382;53.210;5.772;2023-05-28T00:40:25;12.20;79.20
56478;DHT22;42382;53.210;5.772;2023-05-28T00:42:50;12.10;79.20
56478;DHT22;42382;53.210;5.772;2023-05-28T00:45:16;12.10;79.30
56478;DHT22;42382;53.210;5.772;2023-05-28T00:55:15;12.10;79.30
56478;DHT22;42382;53.210;5.772;2023-05-28T00:57:42;11.90;79.60
56478;DHT22;42382;53.210;5.772;2023-05-28T01:02:35;11.90;79.70
56478;DHT22;42382;53.210;5.772;2023-05-28T01:05:01;11.90;79.70
56478;DHT22;42382;53.210;5.772;2023-05-28T01:07:27;11.80;79.80
56478;DHT22;42382;53.210;5.772;2023-05-28T01:09:53;11.90;79.80
56478;DHT22;42382;53.210;5.772;2023-05-28T01:14:45;11.90;79.80
56478;DHT22;42382;53.210;5.772;2023-05-28T01:17:11;11.80;79.80
56478;DHT22;42382;53.210;5.772;2023-05-28T01:19:37;11.80;79.90
56478;DHT22;42382;53.210;5.772;2023-05-28T01:24:34;11.80;80.20
56478;DHT22;42382;53.210;5.772;2023-05-28T01:27:05;11.80;80.30
56478;DHT22;42382;53.210;5.772;2023-05-28T01:29:31;11.80;80.40
56478;DHT22;42382;53.210;5.772;2023-05-28T01:31:56;11.80;80.30
56478;DHT22;42382;53.210;5.772;2023-05-28T01:34:22;11.80;80.30
56478;DHT22;42382;53.210;5.772;2023-05-28T01:36:55;11.80;80.30
56478;DHT22;42382;53.210;5.772;2023-05-28T01:39:27;11.80;80.50
56478;DHT22;42382;53.210;5.772;2023-05-28T01:41:53;11.70;80.40
56478;DHT22;42382;53.210;5.772;2023-05-28T01:44:20;11.80;80.30
56478;DHT22;42382;53.210;5.772;2023-05-28T01:46:46;11.70;80.40
56478;DHT22;42382;53.210;5.772;2023-05-28T01:49:13;11.70;80.50
56478;DHT22;42382;53.210;5.772;2023-05-28T01:51:39;11.70;80.50
56478;DHT22;42382;53.210;5.772;2023-05-28T01:54:05;11.70;80.50
56478;DHT22;42382;53.210;5.772;2023-05-28T01:56:30;11.60;80.40
56478;DHT22;42382;53.210;5.772;2023-05-28T01:58:56;11.70;80.40
56478;DHT22;42382;53.210;5.772;2023-05-28T02:03:56;11.60;80.60
56478;DHT22;42382;53.210;5.772;2023-05-28T02:06:27;11.50;80.50
56478;DHT22;42382;53.210;5.772;2023-05-28T02:08:53;11.50;80.60
56478;DHT22;42382;53.210;5.772;2023-05-28T02:11:19;11.50;80.70
56478;DHT22;42382;53.210;5.772;2023-05-28T02:13:44;11.40;80.70
56478;DHT22;42382;53.210;5.772;2023-05-28T02:16:10;11.40;80.90
56478;DHT22;42382;53.210;5.772;2023-05-28T02:18:37;11.40;81.10
56478;DHT22;42382;53.210;5.772;2023-05-28T02:21:03;11.40;81.10
56478;DHT22;42382;53.210;5.772;2023-05-28T02:23:29;11.40;81.20
56478;DHT22;42382;53.210;5.772;2023-05-28T02:25:55;11.40;81.30
56478;DHT22;42382;53.210;5.772;2023-05-28T02:28:20;11.40;81.40
56478;DHT22;42382;53.210;5.772;2023-05-28T02:30:46;11.40;81.40
56478;DHT22;42382;53.210;5.772;2023-05-28T02:33:11;11.40;81.50
56478;DHT22;42382;53.210;5.772;2023-05-28T02:35:37;11.40;81.70
56478;DHT22;42382;53.210;5.772;2023-05-28T02:38:03;11.40;81.80
56478;DHT22;42382;53.210;5.772;2023-05-28T02:40:28;11.40;81.80
56478;DHT22;42382;53.210;5.772;2023-05-28T02:42:54;11.40;81.80
56478;DHT22;42382;53.210;5.772;2023-05-28T02:45:20;11.40;81.80
56478;DHT22;42382;53.210;5.772;2023-05-28T02:47:45;11.40;81.90
56478;DHT22;42382;53.210;5.772;2023-05-28T02:50:11;11.40;81.80
56478;DHT22;42382;53.210;5.772;2023-05-28T02:52:36;11.40;81.90
56478;DHT22;42382;53.210;5.772;2023-05-28T02:55:02;11.40;82.00
56478;DHT22;42382;53.210;5.772;2023-05-28T02:57:28;11.40;81.90
56478;DHT22;42382;53.210;5.772;2023-05-28T02:59:53;11.40;82.00
56478;DHT22;42382;53.210;5.772;2023-05-28T03:02:19;11.40;82.00
56478;DHT22;42382;53.210;5.772;2023-05-28T03:04:44;11.40;82.10
56478;DHT22;42382;53.210;5.772;2023-05-28T03:07:10;11.40;82.10
56478;DHT22;42382;53.210;5.772;2023-05-28T03:09:36;11.40;82.10
56478;DHT22;42382;53.210;5.772;2023-05-28T03:12:02;11.30;82.10
56478;DHT22;42382;53.210;5.772;2023-05-28T03:14:28;11.30;82.00
56478;DHT22;42382;53.210;5.772;2023-05-28T03:16:54;11.30;82.00
56478;DHT22;42382;53.210;5.772;2023-05-28T03:19:20;11.30;82.00
56478;DHT22;42382;53.210;5.772;2023-05-28T03:21:45;11.30;82.10
56478;DHT22;42382;53.210;5.772;2023-05-28T03:24:11;11.30;82.10
56478;DHT22;42382;53.210;5.772;2023-05-28T03:26:37;11.20;82.10
56478;DHT22;42382;53.210;5.772;2023-05-28T03:29:02;11.20;82.10
56478;DHT22;42382;53.210;5.772;2023-05-28T03:31:29;11.10;82.20
56478;DHT22;42382;53.210;5.772;2023-05-28T03:33:55;11.20;82.30
56478;DHT22;42382;53.210;5.772;2023-05-28T03:36:22;11.10;82.20
56478;DHT22;42382;53.210;5.772;2023-05-28T03:38:50;11.10;82.30
56478;DHT22;42382;53.210;5.772;2023-05-28T03:41:15;11.10;82.30
56478;DHT22;42382;53.210;5.772;2023-05-28T03:43:41;11.00;82.40
56478;DHT22;42382;53.210;5.772;2023-05-28T03:46:06;11.00;82.50
56478;DHT22;42382;53.210;5.772;2023-05-28T03:48:32;11.10;82.50
56478;DHT22;42382;53.210;5.772;2023-05-28T03:50:58;11.10;82.50
56478;DHT22;42382;53.210;5.772;2023-05-28T03:53:24;11.00;82.50
56478;DHT22;42382;53.210;5.772;2023-05-28T03:55:49;11.10;82.50
56478;DHT22;42382;53.210;5.772;2023-05-28T03:58:17;11.10;82.60
56478;DHT22;42382;53.210;5.772;2023-05-28T04:00:42;11.10;82.70
56478;DHT22;42382;53.210;5.772;2023-05-28T04:03:08;11.10;82.70
56478;DHT22;42382;53.210;5.772;2023-05-28T04:05:34;11.10;82.70
56478;DHT22;42382;53.210;5.772;2023-05-28T04:08:01;11.10;82.80
56478;DHT22;42382;53.210;5.772;2023-05-28T04:10:26;11.10;82.80
56478;DHT22;42382;53.210;5.772;2023-05-28T04:12:52;11.10;82.90
56478;DHT22;42382;53.210;5.772;2023-05-28T04:15:20;11.20;82.90
56478;DHT22;42382;53.210;5.772;2023-05-28T04:17:46;11.20;82.90
56478;DHT22;42382;53.210;5.772;2023-05-28T04:20:11;11.20;82.90
56478;DHT22;42382;53.210;5.772;2023-05-28T04:22:37;11.30;82.90
56478;DHT22;42382;53.210;5.772;2023-05-28T04:25:06;11.30;83.00
56478;DHT22;42382;53.210;5.772;2023-05-28T04:27:31;11.30;83.00
56478;DHT22;42382;53.210;5.772;2023-05-28T04:29:57;11.20;83.00
56478;DHT22;42382;53.210;5.772;2023-05-28T04:32:23;11.20;82.90
56478;DHT22;42382;53.210;5.772;2023-05-28T04:34:52;11.20;83.00
56478;DHT22;42382;53.210;5.772;2023-05-28T04:37:19;11.20;83.10
56478;DHT22;42382;53.210;5.772;2023-05-28T04:39:45;11.20;83.10
56478;DHT22;42382;53.210;5.772;2023-05-28T04:42:11;11.20;83.10
56478;DHT22;42382;53.210;5.772;2023-05-28T04:44:42;11.20;83.10
56478;DHT22;42382;53.210;5.772;2023-05-28T04:47:08;11.30;83.10
56478;DHT22;42382;53.210;5.772;2023-05-28T04:49:34;11.30;83.20
56478;DHT22;42382;53.210;5.772;2023-05-28T04:52:00;11.30;83.10
56478;DHT22;42382;53.210;5.772;2023-05-28T04:54:25;11.30;83.20
56478;DHT22;42382;53.210;5.772;2023-05-28T04:56:52;11.40;83.20
56478;DHT22;42382;53.210;5.772;2023-05-28T04:59:17;11.40;83.20
56478;DHT22;42382;53.210;5.772;2023-05-28T05:01:43;11.50;83.30
56478;DHT22;42382;53.210;5.772;2023-05-28T05:04:09;11.50;83.20
56478;DHT22;42382;53.210;5.772;2023-05-28T05:06:34;11.50;83.30
56478;DHT22;42382;53.210;5.772;2023-05-28T05:09:01;11.60;83.30
56478;DHT22;42382;53.210;5.772;2023-05-28T05:11:27;11.60;83.30
56478;DHT22;42382;53.210;5.772;2023-05-28T05:13:52;11.70;83.30
56478;DHT22;42382;53.210;5.772;2023-05-28T05:16:19;11.70;83.40
56478;DHT22;42382;53.210;5.772;2023-05-28T05:18:45;11.70;83.50
56478;DHT22;42382;53.210;5.772;2023-05-28T05:21:11;11.80;83.60
56478;DHT22;42382;53.210;5.772;2023-05-28T05:23:39;11.80;83.80
56478;DHT22;42382;53.210;5.772;2023-05-28T05:26:06;11.90;83.80
56478;DHT22;42382;53.210;5.772;2023-05-28T05:28:32;11.90;83.70
56478;DHT22;42382;53.210;5.772;2023-05-28T05:30:57;11.90;83.80
56478;DHT22;42382;53.210;5.772;2023-05-28T05:33:23;11.90;84.30
56478;DHT22;42382;53.210;5.772;2023-05-28T05:35:48;12.00;84.20
56478;DHT22;42382;53.210;5.772;2023-05-28T05:38:14;12.10;84.40
56478;DHT22;42382;53.210;5.772;2023-05-28T05:40:40;12.10;84.30
56478;DHT22;42382;53.210;5.772;2023-05-28T05:43:05;12.20;84.30
56478;DHT22;42382;53.210;5.772;2023-05-28T05:45:31;12.20;84.20
56478;DHT22;42382;53.210;5.772;2023-05-28T05:47:57;12.30;84.60
56478;DHT22;42382;53.210;5.772;2023-05-28T05:50:22;12.40;84.80
56478;DHT22;42382;53.210;5.772;2023-05-28T05:52:48;12.40;84.60
56478;DHT22;42382;53.210;5.772;2023-05-28T05:55:13;12.40;84.60
56478;DHT22;42382;53.210;5.772;2023-05-28T05:57:39;12.50;84.60
56478;DHT22;42382;53.210;5.772;2023-05-28T06:00:07;12.60;84.60
56478;DHT22;42382;53.210;5.772;2023-05-28T06:02:35;12.60;84.60
56478;DHT22;42382;53.210;5.772;2023-05-28T06:05:04;12.70;84.70
56478;DHT22;42382;53.210;5.772;2023-05-28T06:07:31;12.80;84.60
56478;DHT22;42382;53.210;5.772;2023-05-28T06:09:58;12.80;84.60
56478;DHT22;42382;53.210;5.772;2023-05-28T06:12:24;12.90;84.20
56478;DHT22;42382;53.210;5.772;2023-05-28T06:14:49;12.90;84.00
56478;DHT22;42382;53.210;5.772;2023-05-28T06:17:15;12.90;83.80
56478;DHT22;42382;53.210;5.772;2023-05-28T06:19:41;12.90;83.50
56478;DHT22;42382;53.210;5.772;2023-05-28T06:22:07;12.90;83.60
56478;DHT22;42382;53.210;5.772;2023-05-28T06:24:33;13.00;83.20
56478;DHT22;42382;53.210;5.772;2023-05-28T06:26:59;13.00;83.20
56478;DHT22;42382;53.210;5.772;2023-05-28T06:29:25;13.00;82.90
56478;DHT22;42382;53.210;5.772;2023-05-28T06:31:50;13.10;83.00
56478;DHT22;42382;53.210;5.772;2023-05-28T06:34:16;13.10;82.90
56478;DHT22;42382;53.210;5.772;2023-05-28T06:36:42;13.20;82.70
56478;DHT22;42382;53.210;5.772;2023-05-28T06:39:07;13.20;82.40
56478;DHT22;42382;53.210;5.772;2023-05-28T06:41:34;13.20;82.40
56478;DHT22;42382;53.210;5.772;2023-05-28T06:44:00;13.30;82.40
56478;DHT22;42382;53.210;5.772;2023-05-28T06:46:25;13.30;82.10
56478;DHT22;42382;53.210;5.772;2023-05-28T06:48:54;13.40;81.70
56478;DHT22;42382;53.210;5.772;2023-05-28T06:51:19;13.40;81.30
56478;DHT22;42382;53.210;5.772;2023-05-28T06:53:45;13.50;79.40
56478;DHT22;42382;53.210;5.772;2023-05-28T06:56:12;13.60;79.60
56478;DHT22;42382;53.210;5.772;2023-05-28T06:58:37;14.40;79.10
56478;DHT22;42382;53.210;5.772;2023-05-28T07:01:03;15.40;76.60
56478;DHT22;42382;53.210;5.772;2023-05-28T07:03:30;16.20;72.50
56478;DHT22;42382;53.210;5.772;2023-05-28T07:05:56;17.00;71.10
56478;DHT22;42382;53.210;5.772;2023-05-28T07:08:21;17.80;67.80
56478;DHT22;42382;53.210;5.772;2023-05-28T07:10:47;18.30;63.70
56478;DHT22;42382;53.210;5.772;2023-05-28T07:13:13;18.70;63.70
56478;DHT22;42382;53.210;5.772;2023-05-28T07:15:38;19.10;59.40
56478;DHT22;42382;53.210;5.772;2023-05-28T07:18:04;19.20;57.60
56478;DHT22;42382;53.210;5.772;2023-05-28T07:20:30;19.50;58.30
56478;DHT22;42382;53.210;5.772;2023-05-28T07:22:56;20.00;58.10
56478;DHT22;42382;53.210;5.772;2023-05-28T07:25:22;20.40;55.00
56478;DHT22;42382;53.210;5.772;2023-05-28T07:27:47;20.80;52.50
56478;DHT22;42382;53.210;5.772;2023-05-28T07:30:13;21.00;51.40
56478;DHT22;42382;53.210;5.772;2023-05-28T07:32:38;21.30;51.80
56478;DHT22;42382;53.210;5.772;2023-05-28T07:35:04;21.80;52.00
56478;DHT22;42382;53.210;5.772;2023-05-28T07:37:30;22.10;49.10
56478;DHT22;42382;53.210;5.772;2023-05-28T07:39:57;22.30;46.10
56478;DHT22;42382;53.210;5.772;2023-05-28T07:42:23;22.50;45.70
56478;DHT22;42382;53.210;5.772;2023-05-28T07:44:48;22.80;45.20
56478;DHT22;42382;53.210;5.772;2023-05-28T07:47:14;22.90;45.30
56478;DHT22;42382;53.210;5.772;2023-05-28T07:49:40;23.40;44.20
56478;DHT22;42382;53.210;5.772;2023-05-28T07:52:06;23.60;43.00
56478;DHT22;42382;53.210;5.772;2023-05-28T07:54:31;23.80;42.20
56478;DHT22;42382;53.210;5.772;2023-05-28T07:56:57;23.80;41.60
56478;DHT22;42382;53.210;5.772;2023-05-28T07:59:22;24.00;40.50
56478;DHT22;42382;53.210;5.772;2023-05-28T08:01:48;24.00;41.30
56478;DHT22;42382;53.210;5.772;2023-05-28T08:04:14;23.90;39.70
56478;DHT22;42382;53.210;5.772;2023-05-28T08:06:40;23.70;41.40
56478;DHT22;42382;53.210;5.772;2023-05-28T08:09:05;23.90;42.00
56478;DHT22;42382;53.210;5.772;2023-05-28T08:11:31;24.20;41.80
56478;DHT22;42382;53.210;5.772;2023-05-28T08:13:56;24.40;41.50
56478;DHT22;42382;53.210;5.772;2023-05-28T08:16:22;24.60;42.10
56478;DHT22;42382;53.210;5.772;2023-05-28T08:18:47;24.90;42.00
56478;DHT22;42382;53.210;5.772;2023-05-28T08:21:13;25.10;41.70
56478;DHT22;42382;53.210;5.772;2023-05-28T08:23:38;25.00;40.60
56478;DHT22;42382;53.210;5.772;2023-05-28T08:26:04;24.90;40.60
56478;DHT22;42382;53.210;5.772;2023-05-28T08:28:30;24.80;41.00
56478;DHT22;42382;53.210;5.772;2023-05-28T08:30:56;24.90;41.60
56478;DHT22;42382;53.210;5.772;2023-05-28T08:33:22;25.00;41.60
56478;DHT22;42382;53.210;5.772;2023-05-28T08:35:48;25.00;41.50
56478;DHT22;42382;53.210;5.772;2023-05-28T08:38:14;25.00;41.80
56478;DHT22;42382;53.210;5.772;2023-05-28T08:40:43;24.90;41.20
56478;DHT22;42382;53.210;5.772;2023-05-28T08:43:09;24.90;41.50
56478;DHT22;42382;53.210;5.772;2023-05-28T08:45:35;24.90;41.80
56478;DHT22;42382;53.210;5.772;2023-05-28T08:48:04;24.90;41.70
56478;DHT22;42382;53.210;5.772;2023-05-28T08:50:31;25.10;41.50
56478;DHT22;42382;53.210;5.772;2023-05-28T08:52:59;25.40;41.60
56478;DHT22;42382;53.210;5.772;2023-05-28T08:55:27;25.40;41.30
56478;DHT22;42382;53.210;5.772;2023-05-28T08:57:52;25.40;40.90
56478;DHT22;42382;53.210;5.772;2023-05-28T09:00:19;25.40;40.60
56478;DHT22;42382;53.210;5.772;2023-05-28T09:02:47;25.40;40.30
56478;DHT22;42382;53.210;5.772;2023-05-28T09:05:12;25.40;40.70
56478;DHT22;42382;53.210;5.772;2023-05-28T09:07:38;25.20;40.70
56478;DHT22;42382;53.210;5.772;2023-05-28T09:10:04;25.30;41.00
56478;DHT22;42382;53.210;5.772;2023-05-28T09:12:29;25.50;40.40
56478;DHT22;42382;53.210;5.772;2023-05-28T09:14:55;25.80;39.20
56478;DHT22;42382;53.210;5.772;2023-05-28T09:17:38;25.90;37.70
56478;DHT22;42382;53.210;5.772;2023-05-28T09:20:13;25.90;37.50
56478;DHT22;42382;53.210;5.772;2023-05-28T09:22:39;25.70;36.20
56478;DHT22;42382;53.210;5.772;2023-05-28T09:25:06;25.70;36.00
56478;DHT22;42382;53.210;5.772;2023-05-28T09:27:33;25.60;35.20
56478;DHT22;42382;53.210;5.772;2023-05-28T09:30:03;25.40;35.10
56478;DHT22;42382;53.210;5.772;2023-05-28T09:32:32;25.10;35.50
56478;DHT22;42382;53.210;5.772;2023-05-28T09:34:58;24.70;35.30
56478;DHT22;42382;53.210;5.772;2023-05-28T09:37:27;24.50;35.20
56478;DHT22;42382;53.210;5.772;2023-05-28T09:40:00;24.40;34.60
56478;DHT22;42382;53.210;5.772;2023-05-28T09:42:32;24.40;35.10
56478;DHT22;42382;53.210;5.772;2023-05-28T09:45:00;24.40;34.00
56478;DHT22;42382;53.210;5.772;2023-05-28T09:47:26;24.40;34.00
56478;DHT22;42382;53.210;5.772;2023-05-28T09:49:51;24.40;32.90
56478;DHT22;42382;53.210;5.772;2023-05-28T09:52:19;24.50;33.70
56478;DHT22;42382;53.210;5.772;2023-05-28T09:54:50;24.60;33.40
56478;DHT22;42382;53.210;5.772;2023-05-28T09:57:30;24.60;32.30
56478;DHT22;42382;53.210;5.772;2023-05-28T09:59:56;24.30;33.30
56478;DHT22;42382;53.210;5.772;2023-05-28T10:05:07;24.40;34.20
56478;DHT22;42382;53.210;5.772;2023-05-28T10:07:35;24.30;35.00
56478;DHT22;42382;53.210;5.772;2023-05-28T10:10:02;24.30;35.90
56478;DHT22;42382;53.210;5.772;2023-05-28T10:12:29;24.40;36.10
56478;DHT22;42382;53.210;5.772;2023-05-28T10:14:56;24.60;35.20
56478;DHT22;42382;53.210;5.772;2023-05-28T10:17:23;24.40;36.40
56478;DHT22;42382;53.210;5.772;2023-05-28T10:19:49;24.60;36.40
56478;DHT22;42382;53.210;5.772;2023-05-28T10:22:15;24.60;36.40
56478;DHT22;42382;53.210;5.772;2023-05-28T10:24:42;24.50;35.50
56478;DHT22;42382;53.210;5.772;2023-05-28T10:27:17;24.30;35.60
56478;DHT22;42382;53.210;5.772;2023-05-28T10:29:45;24.30;35.70
56478;DHT22;42382;53.210;5.772;2023-05-28T10:32:16;24.30;36.10
56478;DHT22;42382;53.210;5.772;2023-05-28T10:34:42;24.30;36.30
56478;DHT22;42382;53.210;5.772;2023-05-28T10:37:09;24.30;36.40
56478;DHT22;42382;53.210;5.772;2023-05-28T10:39:45;24.30;36.90
56478;DHT22;42382;53.210;5.772;2023-05-28T10:42:15;24.20;37.50
56478;DHT22;42382;53.210;5.772;2023-05-28T10:45:08;23.90;38.50
56478;DHT22;42382;53.210;5.772;2023-05-28T10:47:40;23.80;38.90
56478;DHT22;42382;53.210;5.772;2023-05-28T10:52:35;23.80;40.10
56478;DHT22;42382;53.210;5.772;2023-05-28T10:55:10;23.80;39.90
56478;DHT22;42382;53.210;5.772;2023-05-28T10:57:47;23.90;40.30
56478;DHT22;42382;53.210;5.772;2023-05-28T11:00:23;23.90;41.10
56478;DHT22;42382;53.210;5.772;2023-05-28T11:02:51;24.10;40.70
56478;DHT22;42382;53.210;5.772;2023-05-28T11:05:22;23.90;41.60
56478;DHT22;42382;53.210;5.772;2023-05-28T11:07:49;24.00;41.70
56478;DHT22;42382;53.210;5.772;2023-05-28T11:10:16;23.90;41.80
56478;DHT22;42382;53.210;5.772;2023-05-28T11:12:43;23.70;42.40
56478;DHT22;42382;53.210;5.772;2023-05-28T11:15:11;23.60;42.70
56478;DHT22;42382;53.210;5.772;2023-05-28T11:17:45;23.40;43.40
56478;DHT22;42382;53.210;5.772;2023-05-28T11:20:22;23.40;44.10
56478;DHT22;42382;53.210;5.772;2023-05-28T11:22:51;23.40;43.60
56478;DHT22;42382;53.210;5.772;2023-05-28T11:25:18;23.30;44.40
56478;DHT22;42382;53.210;5.772;2023-05-28T11:27:46;23.40;44.30
56478;DHT22;42382;53.210;5.772;2023-05-28T11:30:14;23.40;43.50
56478;DHT22;42382;53.210;5.772;2023-05-28T11:32:40;23.30;43.90
56478;DHT22;42382;53.210;5.772;2023-05-28T11:35:09;23.30;43.70
56478;DHT22;42382;53.210;5.772;2023-05-28T11:37:37;23.20;43.30
56478;DHT22;42382;53.210;5.772;2023-05-28T11:40:05;23.10;42.30
56478;DHT22;42382;53.210;5.772;2023-05-28T11:42:35;23.00;41.00
56478;DHT22;42382;53.210;5.772;2023-05-28T11:45:01;22.80;42.10
56478;DHT22;42382;53.210;5.772;2023-05-28T11:47:26;22.80;41.70
56478;DHT22;42382;53.210;5.772;2023-05-28T11:49:52;22.70;40.60
56478;DHT22;42382;53.210;5.772;2023-05-28T11:54:57;22.50;41.80
56478;DHT22;42382;53.210;5.772;2023-05-28T11:57:27;22.20;43.80
56478;DHT22;42382;53.210;5.772;2023-05-28T12:00:07;22.20;45.00
56478;DHT22;42382;53.210;5.772;2023-05-28T15:48:30;22.30;44.40
56478;DHT22;42382;53.210;5.772;2023-05-28T15:50:55;18.20;63.20
56478;DHT22;42382;53.210;5.772;2023-05-28T15:53:21;18.00;63.60
56478;DHT22;42382;53.210;5.772;2023-05-28T15:55:49;17.90;63.90
56478;DHT22;42382;53.210;5.772;2023-05-28T15:58:14;17.90;64.40
56478;DHT22;42382;53.210;5.772;2023-05-28T16:00:40;17.90;65.20
56478;DHT22;42382;53.210;5.772;2023-05-28T16:03:09;17.90;65.00
56478;DHT22;42382;53.210;5.772;2023-05-28T16:05:38;17.80;65.30
56478;DHT22;42382;53.210;5.772;2023-05-28T16:08:05;17.80;65.10
56478;DHT22;42382;53.210;5.772;2023-05-28T16:10:32;17.70;65.60
56478;DHT22;42382;53.210;5.772;2023-05-28T16:12:59;17.70;65.60
56478;DHT22;42382;53.210;5.772;2023-05-28T16:15:29;17.60;65.60
56478;DHT22;42382;53.210;5.772;2023-05-28T16:17:55;17.70;65.50
56478;DHT22;42382;53.210;5.772;2023-05-28T16:20:21;17.60;66.00
56478;DHT22;42382;53.210;5.772;2023-05-28T16:22:47;17.60;65.60
56478;DHT22;42382;53.210;5.772;2023-05-28T16:25:13;17.50;66.20
56478;DHT22;42382;53.210;5.772;2023-05-28T16:27:39;17.40;65.70
56478;DHT22;42382;53.210;5.772;2023-05-28T16:30:05;17.40;66.20
56478;DHT22;42382;53.210;5.772;2023-05-28T16:32:32;17.30;66.70
56478;DHT22;42382;53.210;5.772;2023-05-28T16:35:00;17.30;66.80
56478;DHT22;42382;53.210;5.772;2023-05-28T16:37:26;17.20;66.30
56478;DHT22;42382;53.210;5.772;2023-05-28T18:05:29;17.00;66.70
56478;DHT22;42382;53.210;5.772;2023-05-28T18:07:56;15.60;66.60
56478;DHT22;42382;53.210;5.772;2023-05-28T18:10:22;15.50;66.70
56478;DHT22;42382;53.210;5.772;2023-05-28T18:12:48;15.40;67.00
56478;DHT22;42382;53.210;5.772;2023-05-28T18:15:13;15.40;66.20
56478;DHT22;42382;53.210;5.772;2023-05-28T18:17:40;15.40;66.80
56478;DHT22;42382;53.210;5.772;2023-05-28T18:20:06;15.20;67.10
56478;DHT22;42382;53.210;5.772;2023-05-28T18:22:32;15.20;67.40
56478;DHT22;42382;53.210;5.772;2023-05-28T18:24:58;15.20;67.00
56478;DHT22;42382;53.210;5.772;2023-05-28T18:27:23;15.10;66.90
56478;DHT22;42382;53.210;5.772;2023-05-28T18:29:49;15.00;67.00
56478;DHT22;42382;53.210;5.772;2023-05-28T18:32:14;15.00;67.40
56478;DHT22;42382;53.210;5.772;2023-05-28T18:34:41;14.90;67.20
56478;DHT22;42382;53.210;5.772;2023-05-28T18:37:07;14.80;67.50
56478;DHT22;42382;53.210;5.772;2023-05-28T18:39:33;14.80;67.50
56478;DHT22;42382;53.210;5.772;2023-05-28T18:41:59;14.80;67.60
56478;DHT22;42382;53.210;5.772;2023-05-28T18:44:25;14.80;67.60
56478;DHT22;42382;53.210;5.772;2023-05-28T18:46:51;14.70;68.00
56478;DHT22;42382;53.210;5.772;2023-05-28T18:49:16;14.60;68.00
56478;DHT22;42382;53.210;5.772;2023-05-28T18:51:42;14.60;67.50
56478;DHT22;42382;53.210;5.772;2023-05-28T18:54:11;14.40;67.50
56478;DHT22;42382;53.210;5.772;2023-05-28T18:56:37;14.30;67.70
56478;DHT22;42382;53.210;5.772;2023-05-28T18:59:03;14.30;67.40
56478;DHT22;42382;53.210;5.772;2023-05-28T19:01:30;14.20;68.10
56478;DHT22;42382;53.210;5.772;2023-05-28T19:04:00;14.20;68.40
56478;DHT22;42382;53.210;5.772;2023-05-28T19:06:25;14.10;68.30
56478;DHT22;42382;53.210;5.772;2023-05-28T19:08:51;14.10;68.70
56478;DHT22;42382;53.210;5.772;2023-05-28T19:11:17;14.00;69.00
56478;DHT22;42382;53.210;5.772;2023-05-28T19:13:46;14.00;69.00
56478;DHT22;42382;53.210;5.772;2023-05-28T19:16:11;14.00;69.50
56478;DHT22;42382;53.210;5.772;2023-05-28T19:18:37;13.90;69.50
56478;DHT22;42382;53.210;5.772;2023-05-28T19:21:02;13.90;69.50
56478;DHT22;42382;53.210;5.772;2023-05-28T19:23:28;13.80;69.80
56478;DHT22;42382;53.210;5.772;2023-05-28T19:25:54;13.70;70.00
56478;DHT22;42382;53.210;5.772;2023-05-28T19:28:19;13.70;70.20
56478;DHT22;42382;53.210;5.772;2023-05-28T19:30:45;13.60;70.40
56478;DHT22;42382;53.210;5.772;2023-05-28T19:35:37;13.60;70.50
56478;DHT22;42382;53.210;5.772;2023-05-28T19:38:03;13.50;70.70
56478;DHT22;42382;53.210;5.772;2023-05-28T19:42:54;13.30;70.90
56478;DHT22;42382;53.210;5.772;2023-05-28T19:45:20;13.30;71.20
56478;DHT22;42382;53.210;5.772;2023-05-28T19:47:46;13.20;71.30
56478;DHT22;42382;53.210;5.772;2023-05-28T19:50:12;13.10;71.50
56478;DHT22;42382;53.210;5.772;2023-05-28T19:52:38;13.10;71.30
56478;DHT22;42382;53.210;5.772;2023-05-28T19:55:04;13.10;71.30
56478;DHT22;42382;53.210;5.772;2023-05-28T19:57:29;13.00;71.70
56478;DHT22;42382;53.210;5.772;2023-05-28T19:59:55;12.90;71.80
56478;DHT22;42382;53.210;5.772;2023-05-28T20:02:24;12.80;72.20
56478;DHT22;42382;53.210;5.772;2023-05-28T20:04:54;12.80;72.30
56478;DHT22;42382;53.210;5.772;2023-05-28T20:07:24;12.70;72.40
56478;DHT22;42382;53.210;5.772;2023-05-28T20:09:49;12.60;72.40
56478;DHT22;42382;53.210;5.772;2023-05-28T20:12:16;12.60;72.30
56478;DHT22;42382;53.210;5.772;2023-05-28T20:14:42;12.50;72.40
56478;DHT22;42382;53.210;5.772;2023-05-28T20:17:08;12.50;72.60
56478;DHT22;42382;53.210;5.772;2023-05-28T20:19:36;12.40;72.30
56478;DHT22;42382;53.210;5.772;2023-05-28T20:22:05;12.40;72.50
56478;DHT22;42382;53.210;5.772;2023-05-28T20:24:31;12.30;72.70
56478;DHT22;42382;53.210;5.772;2023-05-28T20:27:02;12.30;72.80
56478;DHT22;42382;53.210;5.772;2023-05-28T20:29:35;12.20;72.80
56478;DHT22;42382;53.210;5.772;2023-05-28T20:32:02;12.20;72.80
56478;DHT22;42382;53.210;5.772;2023-05-28T20:34:28;12.20;72.80
56478;DHT22;42382;53.210;5.772;2023-05-28T20:36:54;12.30;72.80
56478;DHT22;42382;53.210;5.772;2023-05-28T20:39:20;12.20;73.00
56478;DHT22;42382;53.210;5.772;2023-05-28T20:41:46;12.20;73.10
56478;DHT22;42382;53.210;5.772;2023-05-28T20:44:15;12.20;72.90
56478;DHT22;42382;53.210;5.772;2023-05-28T20:46:45;12.10;73.00
56478;DHT22;42382;53.210;5.772;2023-05-28T20:49:13;12.10;73.10
56478;DHT22;42382;53.210;5.772;2023-05-28T20:51:39;12.00;73.10
56478;DHT22;42382;53.210;5.772;2023-05-28T20:54:06;12.00;73.30
56478;DHT22;42382;53.210;5.772;2023-05-28T20:56:33;11.90;73.30
56478;DHT22;42382;53.210;5.772;2023-05-28T20:59:02;11.90;73.30
56478;DHT22;42382;53.210;5.772;2023-05-28T21:01:30;11.90;73.30
56478;DHT22;42382;53.210;5.772;2023-05-28T21:03:58;11.90;73.40
56478;DHT22;42382;53.210;5.772;2023-05-28T21:06:23;11.80;73.50
56478;DHT22;42382;53.210;5.772;2023-05-28T21:08:49;11.70;73.60